createdAt,value
2018-11-23T00:03:39.396Z,100524.00
2018-11-23T00:08:42.353Z,100516.00
2018-11-23T00:13:45.566Z,100525.00
2018-11-23T00:18:48.559Z,100524.00
2018-11-23T00:23:51.526Z,100527.00
2018-11-23T00:28:54.637Z,100515.00
2018-11-23T00:33:57.620Z,100523.00
2018-11-23T00:39:00.594Z,100524.00
2018-11-23T00:44:04.072Z,100532.00
2018-11-23T00:49:07.068Z,100525.00
2018-11-23T00:54:10.759Z,100526.00
2018-11-23T00:59:13.744Z,100528.00
2018-11-23T01:04:16.679Z,100528.00
2018-11-23T01:09:19.679Z,100537.00
2018-11-23T01:14:22.674Z,100536.00
2018-11-23T01:19:25.597Z,100537.00
2018-11-23T01:24:28.677Z,100534.00
2018-11-23T01:29:31.653Z,100535.00
2018-11-23T01:34:34.721Z,100536.00
2018-11-23T01:39:37.829Z,100530.00
2018-11-23T01:44:46.436Z,100533.00
2018-11-23T01:49:49.493Z,100542.00
2018-11-23T01:54:52.525Z,100543.00
2018-11-23T01:59:55.496Z,100537.00
2018-11-23T02:04:58.476Z,100542.00
2018-11-23T02:10:01.496Z,100551.00
2018-11-23T02:15:06.697Z,100546.00
2018-11-23T02:20:11.606Z,100541.00
2018-11-23T02:25:14.597Z,100545.00
2018-11-23T02:30:20.184Z,100532.00
2018-11-23T02:35:23.196Z,100525.00
2018-11-23T02:40:26.158Z,100539.00
2018-11-23T02:45:29.104Z,100528.00
2018-11-23T02:50:32.083Z,100529.00
2018-11-23T02:55:35.045Z,100538.00
2018-11-23T03:00:38.049Z,100536.00
2018-11-23T03:05:41.033Z,100537.00
2018-11-23T03:10:43.956Z,100522.00
2018-11-23T03:15:46.935Z,100532.00
2018-11-23T03:20:49.937Z,100519.00
2018-11-23T03:25:53.297Z,100531.00
2018-11-23T03:30:56.283Z,100529.00
2018-11-23T03:35:59.246Z,100527.00
2018-11-23T03:41:02.231Z,100519.00
2018-11-23T03:46:05.229Z,100523.00
2018-11-23T03:51:08.481Z,100517.00
2018-11-23T03:56:11.407Z,100524.00
2018-11-23T04:01:14.388Z,100499.00
2018-11-23T04:06:17.312Z,100509.00
2018-11-23T04:11:20.737Z,100513.00
2018-11-23T04:16:23.725Z,100514.00
2018-11-23T04:21:26.692Z,100508.00
2018-11-23T04:26:29.669Z,100509.00
2018-11-23T04:31:32.608Z,100516.00
2018-11-23T04:36:35.548Z,100519.00
2018-11-23T04:41:38.725Z,100516.00
2018-11-23T04:46:41.672Z,100517.00
2018-11-23T04:51:44.621Z,100510.00
2018-11-23T04:56:47.664Z,100513.00
2018-11-23T05:01:50.634Z,100512.00
2018-11-23T05:06:53.561Z,100512.00
2018-11-23T05:11:56.670Z,100500.00
2018-11-23T05:16:59.605Z,100503.00
2018-11-23T05:22:02.571Z,100499.00
2018-11-23T05:27:05.896Z,100503.00
2018-11-23T05:32:08.962Z,100506.00
2018-11-23T05:37:11.881Z,100498.00
2018-11-23T05:42:14.884Z,100498.00
2018-11-23T05:47:17.846Z,100487.00
2018-11-23T05:52:20.761Z,100489.00
2018-11-23T05:57:23.711Z,100492.00
2018-11-23T06:02:26.700Z,100493.00
2018-11-23T06:07:29.644Z,100504.00
2018-11-23T06:12:32.640Z,100502.00
2018-11-23T06:17:35.657Z,100513.00
2018-11-23T06:22:38.630Z,100487.00
2018-11-23T06:27:41.567Z,100506.00
2018-11-23T06:33:01.854Z,100510.00
2018-11-23T06:38:05.034Z,100506.00
2018-11-23T06:43:07.961Z,100488.00
2018-11-23T06:48:11.233Z,100497.00
2018-11-23T06:53:14.248Z,100509.00
2018-11-23T06:58:17.226Z,100511.00
2018-11-23T07:03:20.174Z,100502.00
2018-11-23T07:08:23.672Z,100513.00
2018-11-23T07:13:27.733Z,100531.00
2018-11-23T07:18:30.696Z,100530.00
2018-11-23T07:23:33.684Z,100530.00
2018-11-23T07:28:36.595Z,100521.00
2018-11-23T07:33:39.564Z,100517.00
2018-11-23T07:38:42.545Z,100515.00
2018-11-23T07:43:45.522Z,100533.00
2018-11-23T07:48:48.443Z,100533.00
2018-11-23T07:53:51.404Z,100534.00
2018-11-23T07:58:54.349Z,100533.00
2018-11-23T08:03:57.355Z,100520.00
2018-11-23T08:09:00.385Z,100520.00
2018-11-23T08:14:03.380Z,100529.00
2018-11-23T08:19:06.528Z,100516.00
2018-11-23T08:24:09.517Z,100529.00
2018-11-23T08:29:12.509Z,100532.00
2018-11-23T08:34:15.496Z,100526.00
2018-11-23T08:39:18.465Z,100535.00
2018-11-23T08:44:21.416Z,100527.00
2018-11-23T08:49:24.406Z,100517.00
2018-11-23T08:54:27.380Z,100506.00
2018-11-23T08:59:30.372Z,100506.00
2018-11-23T09:04:33.373Z,100510.00
2018-11-23T09:09:36.352Z,100501.00
2018-11-23T09:14:39.411Z,100496.00
2018-11-23T09:19:42.366Z,100493.00
2018-11-23T09:24:45.361Z,100489.00
2018-11-23T09:29:48.339Z,100506.00
2018-11-23T09:34:51.827Z,100508.00
2018-11-23T09:39:55.079Z,100511.00
2018-11-23T09:44:58.144Z,100518.00
2018-11-23T09:50:01.091Z,100498.00
2018-11-23T09:55:04.716Z,100502.00
2018-11-23T10:00:11.927Z,100508.00
2018-11-23T10:05:15.627Z,100491.00
2018-11-23T10:10:19.382Z,100484.00
2018-11-23T10:15:23.292Z,100476.00
2018-11-23T10:20:27.722Z,100490.00
2018-11-23T10:25:31.972Z,100473.00
2018-11-23T10:30:35.723Z,100455.00
2018-11-23T10:35:38.687Z,100452.00
2018-11-23T10:40:41.684Z,100452.00
2018-11-23T10:45:44.688Z,100434.00
2018-11-23T10:50:47.636Z,100423.00
2018-11-23T10:55:50.633Z,100417.00
2018-11-23T11:00:59.328Z,100403.00
2018-11-23T11:06:11.708Z,100416.00
2018-11-23T11:11:14.770Z,100415.00
2018-11-23T11:16:17.656Z,100407.00
2018-11-23T11:21:20.639Z,100395.00
2018-11-23T11:26:23.615Z,100389.00
2018-11-23T11:31:26.721Z,100398.00
2018-11-23T11:36:30.583Z,100378.00
2018-11-23T11:41:33.595Z,100371.00
2018-11-23T11:46:36.595Z,100366.00
2018-11-23T11:51:39.602Z,100368.00
2018-11-23T11:56:42.570Z,100361.00
2018-11-23T12:01:45.638Z,100351.00
2018-11-23T12:06:48.585Z,100358.00
2018-11-23T12:11:51.489Z,100346.00
2018-11-23T12:16:54.419Z,100346.00
2018-11-23T12:21:57.394Z,100339.00
2018-11-23T12:27:01.366Z,100330.00
2018-11-23T12:32:04.380Z,100337.00
2018-11-23T12:37:07.975Z,100324.00
2018-11-23T12:42:11.965Z,100316.00
2018-11-23T12:47:15.819Z,100325.00
2018-11-23T12:52:18.807Z,100320.00
2018-11-23T12:57:22.516Z,100315.00
2018-11-23T13:02:26.305Z,100299.00
2018-11-23T13:07:29.302Z,100288.00
2018-11-23T13:12:33.403Z,100277.00
2018-11-23T13:17:36.369Z,100261.00
2018-11-23T13:22:39.636Z,100284.00
2018-11-23T13:27:42.692Z,100281.00
2018-11-23T13:32:45.737Z,100272.00
2018-11-23T13:37:48.906Z,100273.00
2018-11-23T13:42:54.244Z,100280.00
2018-11-23T13:47:58.330Z,100264.00
2018-11-23T13:53:02.349Z,100257.00
2018-11-23T13:58:06.252Z,100252.00
2018-11-23T14:03:10.120Z,100235.00
2018-11-23T14:08:13.993Z,100237.00
2018-11-23T14:13:18.092Z,100234.00
2018-11-23T14:18:21.102Z,100256.00
2018-11-23T14:23:25.387Z,100245.00
2018-11-23T14:28:29.067Z,100240.00
2018-11-23T14:33:32.023Z,100234.00
2018-11-23T14:38:35.030Z,100235.00
2018-11-23T14:43:38.003Z,100229.00
2018-11-23T14:48:41.897Z,100220.00
2018-11-23T14:53:44.924Z,100229.00
2018-11-23T14:58:48.620Z,100220.00
2018-11-23T15:03:51.637Z,100231.00
2018-11-23T15:08:54.948Z,100239.00
2018-11-23T15:13:57.922Z,100242.00
2018-11-23T15:19:00.911Z,100244.00
2018-11-23T15:24:04.501Z,100224.00
2018-11-23T15:29:09.272Z,100218.00
2018-11-23T15:34:12.281Z,100209.00
2018-11-23T15:39:15.252Z,100195.00
2018-11-23T15:44:18.276Z,100204.00
2018-11-23T15:49:22.158Z,100197.00
2018-11-23T15:54:25.144Z,100205.00
2018-11-23T15:59:28.177Z,100211.00
2018-11-23T16:04:39.206Z,100209.00
2018-11-23T16:09:36.055Z,100205.00
2018-11-23T16:14:39.182Z,100206.00
2018-11-23T16:19:47.923Z,100216.00
2018-11-23T16:24:50.969Z,100221.00
2018-11-23T16:29:54.149Z,100216.00
2018-11-23T16:34:57.091Z,100200.00
2018-11-23T16:40:00.070Z,100195.00
2018-11-23T16:45:03.330Z,100193.00
2018-11-23T16:50:07.667Z,100192.00
2018-11-23T16:55:11.869Z,100192.00
2018-11-23T17:00:19.248Z,100184.00
2018-11-23T17:05:24.985Z,100165.00
2018-11-23T17:10:27.992Z,100170.00
2018-11-23T17:15:31.917Z,100158.00
2018-11-23T17:20:36.356Z,100158.00
2018-11-23T17:25:40.522Z,100160.00
2018-11-23T17:30:44.042Z,100170.00
2018-11-23T17:35:47.024Z,100158.00
2018-11-23T17:40:50.124Z,100169.00
2018-11-23T17:45:53.129Z,100169.00
2018-11-23T17:50:58.087Z,100155.00
2018-11-23T17:56:01.179Z,100145.00
2018-11-23T18:01:04.940Z,100138.00
2018-11-23T18:06:07.903Z,100117.00
2018-11-23T18:11:10.917Z,100131.00
2018-11-23T18:16:13.946Z,100111.00
2018-11-23T18:21:17.285Z,100110.00
2018-11-23T18:26:20.442Z,100099.00
2018-11-23T18:31:23.664Z,100090.00
2018-11-23T18:36:26.672Z,100074.00
2018-11-23T18:41:29.621Z,100076.00
2018-11-23T18:46:32.656Z,100051.00
2018-11-23T18:51:35.696Z,100073.00
2018-11-23T18:56:38.921Z,100087.00
2018-11-23T19:01:41.958Z,100077.00
2018-11-23T19:06:44.940Z,100064.00
2018-11-23T19:11:47.862Z,100050.00
2018-11-23T19:16:50.879Z,100050.00
2018-11-23T19:21:53.900Z,100026.00
2018-11-23T19:26:56.852Z,100062.00
2018-11-23T19:32:00.097Z,100061.00
2018-11-23T19:37:03.153Z,100061.00
2018-11-23T19:42:06.276Z,100055.00
2018-11-23T19:47:09.422Z,100055.00
2018-11-23T19:52:12.528Z,100042.00
2018-11-23T19:57:15.571Z,100035.00
2018-11-23T20:02:18.611Z,100020.00
2018-11-23T20:07:21.703Z,100016.00
2018-11-23T20:12:24.719Z,100009.00
2018-11-23T20:17:27.767Z,99996.00
2018-11-23T20:22:30.773Z,99977.00
2018-11-23T20:27:33.819Z,99976.00
2018-11-23T20:32:36.891Z,99975.00
2018-11-23T20:37:40.107Z,99964.00
2018-11-23T20:42:43.243Z,99968.00
2018-11-23T20:47:46.610Z,99959.00
2018-11-23T20:52:49.743Z,99963.00
2018-11-23T20:57:52.784Z,99949.00
2018-11-23T21:02:55.722Z,99951.00
2018-11-23T21:07:59.939Z,99938.00
2018-11-23T21:13:03.044Z,99925.00
2018-11-23T21:18:06.854Z,99921.00
2018-11-23T21:23:10.039Z,99913.00
2018-11-23T21:28:13.137Z,99910.00
2018-11-23T21:33:16.081Z,99908.00
2018-11-23T21:38:18.993Z,99894.00
2018-11-23T21:43:21.953Z,99889.00
2018-11-23T21:48:24.858Z,99886.00
2018-11-23T21:53:27.764Z,99885.00
2018-11-23T21:58:30.842Z,99879.00
2018-11-23T22:03:33.842Z,99874.00
2018-11-23T22:08:36.853Z,99878.00
2018-11-23T22:13:39.807Z,99861.00
2018-11-23T22:18:42.774Z,99865.00
2018-11-23T22:23:45.827Z,99865.00
2018-11-23T22:28:48.812Z,99849.00
2018-11-23T22:33:51.793Z,99842.00
2018-11-23T22:38:54.880Z,99843.00
2018-11-23T22:43:57.867Z,99823.00
2018-11-23T22:49:01.205Z,99822.00
2018-11-23T22:54:04.617Z,99811.00
2018-11-23T22:59:07.577Z,99807.00
2018-11-23T23:04:10.442Z,99810.00
2018-11-23T23:09:13.365Z,99791.00
2018-11-23T23:14:16.284Z,99789.00
2018-11-23T23:19:19.357Z,99776.00
2018-11-23T23:24:22.317Z,99783.00
2018-11-23T23:29:25.294Z,99772.00
2018-11-23T23:34:28.260Z,99777.00
2018-11-23T23:39:31.177Z,99772.00
2018-11-23T23:44:34.080Z,99774.00
2018-11-23T23:49:37.066Z,99788.00
2018-11-23T23:54:40.147Z,99778.00
2018-11-23T23:59:43.172Z,99781.00
